Terminal Aerodrome Forecast
Issued by NWS

Home | Current Version | Previous Version | Text Only | Print | Product List | Glossary Off
Versions: 1 2 3 4 5 6 7 8 9 10 11 12 13 14 15 16 17 18 19 20 21

000
FTUS43 KABR 221100
TAFMBG
TAF
KMBG 221120Z 2212/2312 VRB06KT P6SM BKN006
      TEMPO 2212/2214 SCT007 SCT150
     FM221400 03009KT P6SM SCT150
     FM230000 08007KT P6SM SKC
     FM230600 12006KT P6SM SKC=

USA.gov is the U.S. government's official web portal to all federal, state and local government web resources and services.